Time;durP1;ratioP1;P1;durP2;ratioP2;P2;SDS_P1;SDS_P2;PMS_P1;PMS_P2;Temp;Humidity;BMP_temperature;BMP_pressure;BME280_temperature;BME280_humidity;BME280_pressure;Samples;Min_cycle;Max_cycle;Signal;HPM_P1;HPM_P2
2022/01/16 00:00:24;;;;;;;68.38;33.28;;;;;;;-2.72;88.11;101610.97;5012001;28;20400;-67
2022/01/16 00:05:31;;;;;;;65.35;32.08;;;;;;;-2.79;87.80;101584.84;5027058;28;20056;-70
2022/01/16 00:07:57;;;;;;;68.50;30.37;;;;;;;-2.85;87.43;101595.41;5026918;27;20033;-69
2022/01/16 00:10:26;;;;;;;71.30;31.27;;;;;;;-2.90;86.81;101577.09;5009569;28;20064;-69
2022/01/16 00:12:52;;;;;;;65.00;32.03;;;;;;;-2.94;86.81;101558.78;5018065;28;20026;-69
2022/01/16 00:15:20;;;;;;;71.90;32.50;;;;;;;-2.87;87.19;101578.84;5018116;28;20502;-69
2022/01/16 00:17:55;;;;;;;69.15;31.85;;;;;;;-2.93;87.08;101579.75;5024493;28;20113;-69
2022/01/16 00:20:25;;;;;;;69.88;32.38;;;;;;;-2.98;87.54;101581.59;5015968;28;20079;-69
2022/01/16 00:23:06;;;;;;;61.33;30.48;;;;;;;-3.00;87.25;101596.47;5005710;28;20041;-71
2022/01/16 00:25:35;;;;;;;57.50;28.23;;;;;;;-3.05;86.77;101598.31;5018895;28;20082;-69
2022/01/16 00:28:32;;;;;;;66.80;32.80;;;;;;;-3.06;86.54;101614.06;5018280;28;20377;-68
2022/01/16 00:34:02;;;;;;;53.38;25.58;;;;;;;-3.16;86.84;101576.56;5051255;28;20243;-68
2022/01/16 00:36:27;;;;;;;64.93;30.88;;;;;;;-3.27;87.05;101570.59;5017118;28;20050;-68
2022/01/16 00:39:34;;;;;;;64.38;29.17;;;;;;;-3.20;86.90;101595.84;5013328;28;20030;-68
2022/01/16 00:42:40;;;;;;;61.63;29.48;;;;;;;-3.28;86.44;101581.97;4966429;28;20509;-69
2022/01/16 00:45:12;;;;;;;61.08;28.23;;;;;;;-3.35;86.37;101561.06;4930066;28;20086;-69
2022/01/16 00:47:38;;;;;;;59.28;28.73;;;;;;;-3.46;86.20;101532.34;4997741;28;20835;-69
2022/01/16 00:50:34;;;;;;;59.97;28.40;;;;;;;-3.40;86.05;101557.63;4950062;28;20085;-69
2022/01/16 00:53:05;;;;;;;64.88;29.80;;;;;;;-3.41;86.07;101585.63;4950891;28;20038;-70
2022/01/16 00:55:46;;;;;;;63.80;29.33;;;;;;;-3.46;85.95;101595.28;4953802;28;20051;-69
2022/01/16 00:58:27;;;;;;;55.13;27.30;;;;;;;-3.76;86.18;101516.09;4953822;28;20049;-69
2022/01/16 01:00:52;;;;;;;60.20;27.55;;;;;;;-3.59;86.39;101548.22;4959656;28;20051;-67
2022/01/16 01:03:18;;;;;;;63.67;28.73;;;;;;;-3.52;86.42;101581.38;4961608;28;20092;-67
2022/01/16 01:05:43;;;;;;;61.13;28.42;;;;;;;-3.62;85.59;101562.25;4963660;28;20438;-67
2022/01/16 01:08:09;;;;;;;61.20;29.58;;;;;;;-3.77;86.39;101562.38;4963019;28;20049;-66
2022/01/16 01:10:38;;;;;;;60.97;29.42;;;;;;;-3.68;86.47;101630.44;4959250;28;20084;-66
2022/01/16 01:13:11;;;;;;;62.40;27.20;;;;;;;-3.76;86.99;101600.84;4960608;28;20631;-67
2022/01/16 01:15:48;;;;;;;59.63;28.83;;;;;;;-3.81;87.05;101504.81;4963645;28;20098;-67
2022/01/16 01:18:15;;;;;;;65.90;30.55;;;;;;;-3.82;86.76;101500.44;4969550;28;20084;-67
2022/01/16 01:20:42;;;;;;;65.10;27.98;;;;;;;-3.80;86.99;101511.78;4988190;28;20034;-68
2022/01/16 01:23:10;;;;;;;58.40;29.25;;;;;;;-3.83;86.04;101523.16;4986218;28;20027;-67
2022/01/16 01:25:36;;;;;;;64.53;30.08;;;;;;;-3.86;85.74;101519.69;4978122;28;20034;-67
2022/01/16 01:28:03;;;;;;;65.30;31.23;;;;;;;-3.92;86.18;101562.56;4981691;28;20360;-67
2022/01/16 01:30:29;;;;;;;69.32;31.63;;;;;;;-3.95;85.65;101570.44;4969853;28;20115;-67
2022/01/16 01:32:55;;;;;;;67.80;30.77;;;;;;;-3.96;86.52;101557.34;4975595;28;20587;-67
2022/01/16 01:35:21;;;;;;;72.60;31.50;;;;;;;-3.98;86.82;101601.03;4981590;28;20144;-67
2022/01/16 01:37:47;;;;;;;69.68;30.70;;;;;;;-4.01;87.58;101588.81;4970774;28;20126;-67
2022/01/16 01:40:20;;;;;;;71.78;32.38;;;;;;;-4.06;88.13;101585.41;4970949;28;20484;-67
2022/01/16 01:43:01;;;;;;;76.35;32.67;;;;;;;-4.05;89.16;101584.50;5004993;28;20060;-67
2022/01/16 01:51:19;;;;;;;68.20;27.73;;;;;;;-4.12;88.00;101561.88;5020658;28;20534;-66
2022/01/16 01:53:45;;;;;;;56.13;27.15;;;;;;;-4.13;87.25;101582.84;5015090;28;20021;-66
2022/01/16 01:56:12;;;;;;;59.22;28.33;;;;;;;-4.22;86.77;101565.44;5026110;28;20098;-67
2022/01/16 01:58:38;;;;;;;59.67;26.90;;;;;;;-4.24;86.77;101546.25;5020514;27;20033;-67
2022/01/16 02:01:04;;;;;;;56.60;27.13;;;;;;;-4.30;85.37;101562.00;5018460;28;20030;-67
2022/01/16 02:05:59;;;;;;;67.50;28.38;;;;;;;-4.47;86.17;101558.66;5022554;28;20049;-67
2022/01/16 02:08:25;;;;;;;61.28;27.15;;;;;;;-4.49;86.55;101556.94;5010822;28;20172;-67
2022/01/16 02:10:50;;;;;;;63.58;27.55;;;;;;;-4.58;86.96;101563.06;5024313;28;20078;-66
2022/01/16 02:13:45;;;;;;;58.25;27.48;;;;;;;-4.57;86.71;101564.84;5026037;28;20036;-67
2022/01/16 02:30:52;;;;;;;58.38;25.27;;;;;;;-4.83;87.21;101572.81;5026221;28;20054;-67
2022/01/16 02:35:03;;;;;;;57.50;26.70;;;;;;;-4.81;87.06;101610.31;5017823;28;20038;-67
2022/01/16 02:37:29;;;;;;;57.58;25.42;;;;;;;-4.88;86.99;101611.25;5022632;28;20033;-67
2022/01/16 02:40:00;;;;;;;55.17;25.70;;;;;;;-4.89;87.06;101606.03;5023454;28;20026;-68
2022/01/16 02:42:28;;;;;;;55.75;24.83;;;;;;;-4.89;87.79;101612.13;5025069;28;20443;-68
2022/01/16 02:45:02;;;;;;;56.30;25.75;;;;;;;-4.94;88.24;101605.16;5017985;28;20102;-68
2022/01/16 02:47:28;;;;;;;52.38;23.85;;;;;;;-4.95;88.42;101606.03;5013100;27;20051;-68
2022/01/16 02:49:54;;;;;;;50.03;22.63;;;;;;;-4.89;89.25;101619.97;5012744;28;20042;-67
2022/01/16 02:52:21;;;;;;;47.47;23.25;;;;;;;-4.94;89.64;101599.94;5016280;28;20046;-68
2022/01/16 02:54:51;;;;;;;53.97;24.50;;;;;;;-4.87;89.52;101612.97;5043112;28;20026;-68
2022/01/16 02:57:19;;;;;;;60.97;24.40;;;;;;;-4.87;89.57;101614.75;5017310;28;20028;-68
2022/01/16 02:59:49;;;;;;;51.88;22.25;;;;;;;-4.82;89.15;101610.34;5017676;28;20452;-68
2022/01/16 03:02:16;;;;;;;51.30;26.50;;;;;;;-4.89;89.29;101603.41;5023964;28;20025;-68
2022/01/16 03:04:41;;;;;;;55.22;22.77;;;;;;;-4.84;89.98;101612.97;5023258;27;20068;-68
2022/01/16 03:07:07;;;;;;;58.47;26.08;;;;;;;-4.79;89.89;101623.41;5010617;28;20062;-67
2022/01/16 03:12:17;;;;;;;51.60;24.25;;;;;;;-4.80;90.86;101603.38;5028002;28;20048;-68
2022/01/16 03:14:42;;;;;;;54.58;24.23;;;;;;;-4.74;90.93;101609.41;5018513;28;20037;-67
2022/01/16 03:17:10;;;;;;;58.22;27.15;;;;;;;-4.79;90.77;101584.16;5028079;28;20357;-67
2022/01/16 03:22:19;;;;;;;65.95;28.27;;;;;;;-4.76;91.09;101584.16;5023604;28;20071;-68
2022/01/16 03:24:46;;;;;;;60.25;27.15;;;;;;;-4.74;90.46;101592.88;5012658;28;20462;-69
2022/01/16 03:27:18;;;;;;;65.38;26.55;;;;;;;-4.72;90.94;101583.25;5026921;28;20025;-68
2022/01/16 03:29:46;;;;;;;61.10;26.50;;;;;;;-4.70;91.26;101576.25;5016848;28;20454;-68
2022/01/16 03:32:14;;;;;;;61.03;28.15;;;;;;;-4.70;90.95;101579.72;5017502;28;20134;-68
2022/01/16 03:34:40;;;;;;;64.35;27.88;;;;;;;-4.77;91.03;101564.94;5018476;28;20128;-68
2022/01/16 03:37:05;;;;;;;68.88;28.98;;;;;;;-4.75;91.36;101554.47;5026331;28;20112;-68
2022/01/16 03:39:31;;;;;;;61.42;27.88;;;;;;;-4.76;91.64;101557.97;5025397;28;20036;-68
2022/01/16 03:41:59;;;;;;;71.68;29.60;;;;;;;-4.75;91.47;101563.22;5019948;28;20073;-69
2022/01/16 03:44:25;;;;;;;62.15;28.30;;;;;;;-4.71;91.38;101566.66;5017631;28;20051;-68
2022/01/16 03:46:51;;;;;;;66.05;29.33;;;;;;;-4.73;91.85;101584.97;5007699;28;20463;-68
2022/01/16 03:49:19;;;;;;;64.80;30.15;;;;;;;-4.68;92.12;101587.56;5025570;28;20036;-67
2022/01/16 03:51:48;;;;;;;63.63;26.50;;;;;;;-4.72;92.19;101575.41;5021536;28;20509;-67
2022/01/16 03:54:16;;;;;;;60.33;26.02;;;;;;;-4.74;92.43;101579.78;5018431;28;20026;-67
2022/01/16 03:56:42;;;;;;;69.00;27.60;;;;;;;-4.66;92.64;101596.28;5021156;28;20026;-67
2022/01/16 03:59:08;;;;;;;58.30;26.67;;;;;;;-4.67;92.69;101594.56;5008807;28;20032;-68
2022/01/16 04:01:34;;;;;;;65.05;27.95;;;;;;;-4.63;92.89;101582.31;5019963;28;20104;-67
2022/01/16 04:04:00;;;;;;;58.25;25.95;;;;;;;-4.57;92.64;101585.78;5015750;28;20132;-67
2022/01/16 04:06:26;;;;;;;53.15;23.98;;;;;;;-4.57;92.86;101591.00;5025202;28;20033;-67
2022/01/16 04:08:53;;;;;;;52.25;24.58;;;;;;;-4.55;93.18;101588.38;5026698;27;20040;-67
2022/01/16 04:11:24;;;;;;;55.40;24.90;;;;;;;-4.54;92.98;101590.13;5007746;28;20034;-68
2022/01/16 04:13:52;;;;;;;55.80;25.75;;;;;;;-4.57;92.93;101580.53;5022883;28;20106;-67
2022/01/16 04:16:19;;;;;;;60.10;25.88;;;;;;;-4.49;92.80;101585.72;5010925;28;20532;-67
2022/01/16 04:18:50;;;;;;;55.15;27.23;;;;;;;-4.50;93.63;101579.63;5023054;28;20030;-67
2022/01/16 04:21:17;;;;;;;60.05;26.33;;;;;;;-4.52;93.23;101583.13;5016975;28;20504;-67
2022/01/16 04:23:43;;;;;;;60.30;26.38;;;;;;;-4.56;93.49;101577.03;5009541;28;20060;-67
2022/01/16 04:26:08;;;;;;;65.63;27.42;;;;;;;-4.50;94.02;101581.34;5013762;28;20061;-67
2022/01/16 04:28:34;;;;;;;59.47;27.55;;;;;;;-4.51;94.72;101580.50;5012806;28;20030;-67
2022/01/16 04:30:59;;;;;;;60.55;26.52;;;;;;;-4.51;94.37;101584.84;5015928;28;20030;-67
2022/01/16 04:33:24;;;;;;;55.28;25.67;;;;;;;-4.56;94.90;101556.09;5013957;28;20033;-67
2022/01/16 04:35:50;;;;;;;66.20;28.95;;;;;;;-4.54;94.69;101558.72;5023725;28;20062;-68
2022/01/16 04:38:15;;;;;;;57.47;26.42;;;;;;;-4.49;95.16;101563.03;5008223;28;20386;-68
2022/01/16 04:40:45;;;;;;;60.45;27.70;;;;;;;-4.43;94.52;101575.19;5007900;28;20053;-67
2022/01/16 04:45:56;;;;;;;63.90;29.13;;;;;;;-4.40;94.68;101570.81;5016570;28;20044;-68
2022/01/16 04:48:21;;;;;;;63.85;29.70;;;;;;;-4.42;94.72;101561.25;5009849;28;20021;-68
2022/01/16 04:50:47;;;;;;;61.58;28.85;;;;;;;-4.37;95.43;101555.09;5025163;28;20481;-68
2022/01/16 04:53:12;;;;;;;66.78;30.30;;;;;;;-4.37;95.57;101556.81;5019772;28;20018;-68
2022/01/16 04:55:37;;;;;;;65.32;29.80;;;;;;;-4.37;94.71;101557.69;5005771;28;20478;-68
2022/01/16 04:58:03;;;;;;;73.13;32.95;;;;;;;-4.37;95.03;101559.44;5006985;28;20026;-67
2022/01/16 05:00:28;;;;;;;63.60;29.58;;;;;;;-4.40;95.03;101542.00;5015222;28;20053;-68
2022/01/16 05:02:54;;;;;;;66.13;30.13;;;;;;;-4.39;94.65;101540.28;5019011;28;20469;-68
2022/01/16 05:05:19;;;;;;;73.30;31.77;;;;;;;-4.30;94.62;101550.66;5021092;28;20831;-68
2022/01/16 05:07:45;;;;;;;62.65;29.10;;;;;;;-4.43;94.18;101539.41;5011144;28;20041;-68
2022/01/16 05:10:10;;;;;;;60.10;29.30;;;;;;;-4.38;93.97;101542.00;5011484;28;20066;-67
2022/01/16 05:12:39;;;;;;;70.15;31.25;;;;;;;-4.38;93.99;101548.13;5010033;28;20021;-68
2022/01/16 05:17:50;;;;;;;67.38;31.20;;;;;;;-4.40;93.40;101541.13;5012056;28;20059;-67
2022/01/16 05:20:15;;;;;;;70.45;32.00;;;;;;;-4.43;93.98;101542.03;5017663;28;20071;-67
2022/01/16 05:22:41;;;;;;;76.63;33.55;;;;;;;-4.42;93.68;101527.22;5012808;28;20029;-68
2022/01/16 05:25:08;;;;;;;85.72;35.85;;;;;;;-4.41;93.77;101542.03;5021069;28;20059;-68
2022/01/16 05:27:35;;;;;;;80.45;33.85;;;;;;;-4.41;93.80;101537.69;5022388;28;20037;-67
2022/01/16 05:30:01;;;;;;;80.07;34.33;;;;;;;-4.45;93.87;101535.94;5021636;28;20488;-68
2022/01/16 05:32:26;;;;;;;85.70;35.45;;;;;;;-4.49;94.04;101531.63;5011787;28;20041;-68
2022/01/16 05:34:52;;;;;;;79.00;33.97;;;;;;;-4.44;93.65;101542.94;5022766;28;20034;-67
2022/01/16 05:37:17;;;;;;;88.53;36.30;;;;;;;-4.46;93.55;101542.06;5011151;28;20501;-67
2022/01/16 05:39:45;;;;;;;82.75;35.42;;;;;;;-4.45;93.49;101535.94;5025216;28;20041;-68
2022/01/16 05:42:12;;;;;;;84.70;32.95;;;;;;;-4.43;93.52;101552.50;5019704;28;20510;-67
2022/01/16 05:44:38;;;;;;;80.00;33.47;;;;;;;-4.49;93.67;101541.22;5013871;28;20053;-67
2022/01/16 05:47:05;;;;;;;76.85;33.95;;;;;;;-4.49;93.81;101546.47;5010670;28;20069;-68
2022/01/16 05:49:30;;;;;;;84.20;34.50;;;;;;;-4.46;93.22;101557.78;5019395;28;20471;-67
2022/01/16 05:51:56;;;;;;;80.60;34.30;;;;;;;-4.44;93.91;101563.00;5023211;28;20034;-67
2022/01/16 05:54:21;;;;;;;73.35;31.08;;;;;;;-4.44;93.18;101563.00;5022442;28;20103;-67
2022/01/16 05:56:47;;;;;;;81.28;32.63;;;;;;;-4.50;93.99;101556.06;5011966;28;20034;-68
2022/01/16 05:59:12;;;;;;;86.72;34.30;;;;;;;-4.50;93.49;101568.25;5023010;28;20026;-67
2022/01/16 06:01:38;;;;;;;80.20;32.75;;;;;;;-4.58;93.94;101557.00;5019898;28;20026;-69
2022/01/16 06:04:03;;;;;;;84.43;35.38;;;;;;;-4.52;93.74;101572.66;5019094;28;20033;-70
2022/01/16 06:06:29;;;;;;;85.43;36.50;;;;;;;-4.55;94.16;101573.53;5030602;28;20029;-69
2022/01/16 06:08:54;;;;;;;79.47;34.33;;;;;;;-4.49;94.48;101575.25;5016487;28;20046;-69
2022/01/16 06:11:20;;;;;;;92.55;36.92;;;;;;;-4.54;94.15;101559.59;5021316;28;20022;-68
2022/01/16 06:13:45;;;;;;;89.13;36.47;;;;;;;-4.56;94.54;101566.56;5019798;28;20030;-68
2022/01/16 06:16:11;;;;;;;82.22;35.42;;;;;;;-4.55;94.52;101570.06;5015556;28;20061;-69
2022/01/16 06:18:37;;;;;;;92.07;35.33;;;;;;;-4.53;94.91;101584.88;5041768;28;20473;-69
2022/01/16 06:21:02;;;;;;;93.00;35.30;;;;;;;-4.64;94.81;101567.50;5019633;28;20053;-69
2022/01/16 06:23:28;;;;;;;100.85;38.30;;;;;;;-4.54;94.25;101579.63;5021235;28;20549;-69
2022/01/16 06:25:56;;;;;;;87.80;37.95;;;;;;;-4.56;95.04;101587.50;5013709;28;20060;-69
2022/01/16 06:28:23;;;;;;;110.80;41.92;;;;;;;-4.50;94.91;101597.94;5021516;28;20088;-69
2022/01/16 06:30:48;;;;;;;115.88;40.30;;;;;;;-4.51;94.98;101584.84;5012283;28;20098;-69
2022/01/16 06:33:14;;;;;;;81.65;33.47;;;;;;;-4.51;95.09;101595.34;5025445;28;20033;-69
2022/01/16 06:35:39;;;;;;;81.60;35.05;;;;;;;-4.46;95.43;101611.88;5024218;28;20132;-69
2022/01/16 06:38:05;;;;;;;90.97;34.90;;;;;;;-4.51;95.23;101603.19;5020501;28;20468;-69
2022/01/16 06:40:31;;;;;;;91.30;38.38;;;;;;;-4.51;94.78;101601.44;5017842;28;20029;-69
2022/01/16 06:42:56;;;;;;;90.63;39.60;;;;;;;-4.46;95.42;101615.34;5016422;28;20049;-69
2022/01/16 06:45:22;;;;;;;83.35;35.53;;;;;;;-4.51;95.12;101605.81;5024546;28;20022;-69
2022/01/16 06:47:47;;;;;;;82.45;35.75;;;;;;;-4.48;95.16;101611.91;5011327;28;20508;-69
2022/01/16 06:50:13;;;;;;;82.10;36.60;;;;;;;-4.41;96.22;101613.59;5022380;28;20029;-69
2022/01/16 06:52:38;;;;;;;77.82;33.22;;;;;;;-4.47;96.02;101602.28;5003837;28;21767;-69
2022/01/16 06:55:04;;;;;;;83.15;34.83;;;;;;;-4.35;95.52;101607.44;5017388;28;20064;-70
2022/01/16 06:57:30;;;;;;;87.47;35.00;;;;;;;-4.34;95.94;101612.66;5025800;28;20033;-70
2022/01/16 06:59:55;;;;;;;90.13;36.88;;;;;;;-4.36;95.82;101617.03;5042180;27;20031;-69
2022/01/16 07:02:22;;;;;;;86.22;35.65;;;;;;;-4.33;95.57;101617.00;5010614;28;20021;-68
2022/01/16 07:04:48;;;;;;;83.22;35.10;;;;;;;-4.34;96.33;101609.16;5011206;28;20033;-69
2022/01/16 07:07:13;;;;;;;90.93;37.40;;;;;;;-4.31;95.82;101615.25;5027911;28;20531;-69
2022/01/16 07:09:39;;;;;;;75.20;34.03;;;;;;;-4.31;96.13;101607.41;5059074;27;20032;-69
2022/01/16 07:12:06;;;;;;;84.47;34.25;;;;;;;-4.31;96.04;101607.41;5029445;28;20491;-69
2022/01/16 07:14:32;;;;;;;73.50;33.42;;;;;;;-4.23;95.89;101604.75;5022035;28;20470;-69
2022/01/16 07:16:57;;;;;;;82.30;35.10;;;;;;;-4.28;96.05;101610.00;5021529;28;20044;-69
2022/01/16 07:19:23;;;;;;;74.55;31.58;;;;;;;-4.21;94.91;101613.44;5009239;28;20034;-69
2022/01/16 07:21:48;;;;;;;70.80;32.65;;;;;;;-4.18;94.90;101623.88;5024878;28;20033;-69
2022/01/16 07:24:16;;;;;;;72.20;34.40;;;;;;;-4.22;94.61;101624.81;5027298;28;20021;-69
2022/01/16 07:26:42;;;;;;;77.53;34.80;;;;;;;-4.20;95.27;101626.53;5034258;27;20032;-68
2022/01/16 07:29:09;;;;;;;71.38;33.47;;;;;;;-4.20;94.70;101625.66;5026395;28;20026;-69
2022/01/16 07:31:36;;;;;;;75.43;33.63;;;;;;;-4.18;95.05;101618.66;5027560;28;20703;-69
2022/01/16 07:34:02;;;;;;;76.13;32.80;;;;;;;-4.20;95.31;101609.97;5024543;28;20500;-69
2022/01/16 07:36:27;;;;;;;75.82;33.42;;;;;;;-4.19;95.47;101607.31;5025884;28;20025;-69
2022/01/16 07:38:53;;;;;;;83.13;34.53;;;;;;;-4.14;95.24;101607.25;5027202;28;20720;-68
2022/01/16 07:41:18;;;;;;;74.38;36.38;;;;;;;-4.16;95.39;101614.28;5080394;27;20039;-68
2022/01/16 07:43:44;;;;;;;85.50;36.13;;;;;;;-4.11;96.66;101615.97;5067960;27;20031;-68
2022/01/16 07:46:09;;;;;;;70.03;33.13;;;;;;;-4.05;96.70;101626.41;5013936;28;20033;-69
2022/01/16 07:48:34;;;;;;;78.43;34.60;;;;;;;-4.04;96.68;101616.78;5023278;28;20078;-69
2022/01/16 07:51:00;;;;;;;80.13;35.83;;;;;;;-4.02;97.09;101629.00;5021826;28;20038;-69
2022/01/16 07:53:26;;;;;;;69.68;34.80;;;;;;;-4.09;97.28;101613.34;5019266;28;20033;-69
2022/01/16 07:55:51;;;;;;;79.85;36.47;;;;;;;-4.08;97.53;101610.72;5027778;28;20510;-68
2022/01/16 07:58:17;;;;;;;81.10;36.47;;;;;;;-4.03;97.65;101616.78;5024997;28;20045;-67
2022/01/16 08:00:42;;;;;;;79.22;35.45;;;;;;;-4.04;97.67;101603.69;5022797;28;20033;-67
2022/01/16 08:03:18;;;;;;;71.55;34.47;;;;;;;-3.93;98.41;101615.84;5027197;28;20033;-71
2022/01/16 08:05:46;;;;;;;74.40;36.53;;;;;;;-3.92;98.50;101607.09;5028166;28;20109;-68
2022/01/16 08:08:11;;;;;;;85.10;37.17;;;;;;;-3.90;98.33;101602.69;5022815;28;20029;-68
2022/01/16 08:10:37;;;;;;;87.38;38.67;;;;;;;-3.83;98.76;101588.69;5024699;27;20041;-68
2022/01/16 08:13:03;;;;;;;82.70;37.28;;;;;;;-3.70;99.13;101598.16;5027696;28;20496;-68
2022/01/16 08:15:28;;;;;;;81.22;38.33;;;;;;;-3.66;99.26;101596.34;5019032;28;20022;-68
2022/01/16 08:17:54;;;;;;;86.25;37.53;;;;;;;-3.66;99.41;101592.00;5024920;28;20037;-68
2022/01/16 08:20:20;;;;;;;80.25;37.30;;;;;;;-3.53;98.74;101598.84;5027797;28;20062;-67
2022/01/16 08:22:45;;;;;;;83.25;38.20;;;;;;;-3.51;98.93;101601.47;5018254;28;20120;-67
2022/01/16 08:25:12;;;;;;;91.70;40.30;;;;;;;-3.45;99.06;101604.88;5009410;28;20034;-67
2022/01/16 08:27:37;;;;;;;79.13;36.25;;;;;;;-3.37;99.40;101597.81;5013068;28;20060;-68
2022/01/16 08:30:04;;;;;;;89.47;40.28;;;;;;;-3.37;99.25;101584.69;5014959;28;20394;-68
2022/01/16 08:32:30;;;;;;;87.93;42.55;;;;;;;-3.35;99.08;101582.91;5022904;28;20049;-68
2022/01/16 08:35:06;;;;;;;99.32;41.55;;;;;;;-3.26;99.10;101593.28;5022456;28;20503;-70
2022/01/16 08:37:32;;;;;;;89.35;43.92;;;;;;;-3.23;98.49;101588.00;5015463;28;20032;-68
2022/01/16 08:39:57;;;;;;;97.18;42.95;;;;;;;-3.15;99.30;101591.44;5017577;28;20033;-68
2022/01/16 08:42:26;;;;;;;111.13;47.10;;;;;;;-3.09;99.04;101578.22;5006377;28;20038;-71
2022/01/16 08:44:51;;;;;;;98.47;45.28;;;;;;;-3.11;99.30;101555.50;5016298;28;20025;-68
2022/01/16 08:47:17;;;;;;;92.55;42.95;;;;;;;-3.04;99.40;101565.91;5020846;28;20038;-69
2022/01/16 08:49:43;;;;;;;90.30;43.50;;;;;;;-2.91;99.46;101580.63;5017618;28;20033;-68
2022/01/16 08:52:09;;;;;;;92.85;43.72;;;;;;;-2.90;98.65;101574.47;5011407;28;20030;-68
2022/01/16 08:54:35;;;;;;;101.65;43.40;;;;;;;-2.97;98.86;101556.22;5028901;28;20027;-68
2022/01/16 08:57:01;;;;;;;92.72;42.70;;;;;;;-2.85;98.66;101579.66;5025258;28;20033;-68
2022/01/16 08:59:28;;;;;;;84.05;40.85;;;;;;;-2.88;98.82;101556.97;5012915;28;20047;-68
2022/01/16 09:01:54;;;;;;;91.15;42.95;;;;;;;-2.79;98.79;101559.47;5021878;28;20052;-70
2022/01/16 09:04:19;;;;;;;91.50;42.75;;;;;;;-2.76;98.71;101558.53;5024251;28;20125;-69
2022/01/16 09:06:45;;;;;;;82.00;40.10;;;;;;;-2.74;98.31;101552.38;5035732;27;20771;-69
2022/01/16 09:09:11;;;;;;;84.78;41.50;;;;;;;-2.67;98.36;101558.41;5032909;27;20031;-69
2022/01/16 09:11:37;;;;;;;84.75;40.42;;;;;;;-2.73;98.06;101534.88;5022312;28;20022;-70
2022/01/16 09:14:02;;;;;;;85.28;42.70;;;;;;;-2.59;97.78;101553.91;5040082;27;20504;-69
2022/01/16 09:16:28;;;;;;;83.38;41.08;;;;;;;-2.58;98.49;101545.16;5019572;27;20026;-69
2022/01/16 09:18:53;;;;;;;87.95;42.50;;;;;;;-2.54;98.58;101542.44;5027636;28;20030;-69
2022/01/16 09:21:19;;;;;;;87.03;41.40;;;;;;;-2.47;98.55;101553.72;5019502;28;20439;-70
2022/01/16 09:23:46;;;;;;;96.55;44.28;;;;;;;-2.50;98.47;101544.16;5016195;27;20033;-70
2022/01/16 09:26:13;;;;;;;89.72;41.85;;;;;;;-2.40;98.38;101563.25;5018325;28;20038;-69
2022/01/16 09:28:39;;;;;;;100.80;44.08;;;;;;;-2.43;98.12;101540.53;5024620;28;20513;-70
2022/01/16 09:31:05;;;;;;;96.88;42.00;;;;;;;-2.38;98.13;101546.56;5018517;28;20042;-68
2022/01/16 09:33:30;;;;;;;91.53;41.85;;;;;;;-2.39;97.88;101539.59;5010917;28;20034;-69
2022/01/16 09:35:56;;;;;;;86.78;41.50;;;;;;;-2.25;97.50;101546.38;5016680;28;20045;-68
2022/01/16 09:38:31;;;;;;;90.18;42.10;;;;;;;-2.25;97.65;101530.63;5017543;28;20037;-68
2022/01/16 09:40:57;;;;;;;91.70;42.35;;;;;;;-2.22;97.99;101520.94;5014220;28;20044;-69
2022/01/16 09:43:23;;;;;;;91.57;42.00;;;;;;;-2.19;97.95;101506.88;5016218;27;20045;-69
2022/01/16 09:45:49;;;;;;;93.55;44.35;;;;;;;-2.14;98.57;101507.63;5012313;28;20214;-69
2022/01/16 09:48:18;;;;;;;91.43;44.13;;;;;;;-2.08;98.53;101504.91;5026256;27;20496;-67
2022/01/16 09:50:44;;;;;;;102.68;45.20;;;;;;;-2.01;98.80;101498.66;5029363;28;20029;-71
2022/01/16 09:53:10;;;;;;;101.88;46.05;;;;;;;-2.05;97.91;101487.34;5023150;28;20473;-69
2022/01/16 09:55:35;;;;;;;102.78;46.15;;;;;;;-1.93;97.82;101492.38;5018810;28;20067;-70
2022/01/16 09:58:01;;;;;;;102.97;46.72;;;;;;;-1.96;97.84;101470.53;5019524;28;20037;-69
2022/01/16 10:00:27;;;;;;;100.82;47.15;;;;;;;-1.85;97.09;101482.56;5019961;28;20662;-69
2022/01/16 10:02:53;;;;;;;89.82;44.63;;;;;;;-1.86;96.51;101477.34;5017770;28;20057;-69
2022/01/16 10:05:53;;;;;;;90.15;43.90;;;;;;;-1.76;96.72;101492.03;5019800;28;20100;-71
2022/01/16 10:08:26;;;;;;;93.55;44.10;;;;;;;-1.69;96.21;101498.91;5022804;28;20057;-70
2022/01/16 10:10:52;;;;;;;89.45;44.20;;;;;;;-1.69;96.32;101489.28;5018577;28;20638;-70
2022/01/16 10:13:41;;;;;;;92.53;44.53;;;;;;;-1.62;96.23;101487.41;5022651;27;20041;-70
2022/01/16 10:16:07;;;;;;;93.63;43.30;;;;;;;-1.63;95.95;101480.41;5031112;28;20464;-69
2022/01/16 10:18:34;;;;;;;96.63;44.85;;;;;;;-1.53;95.83;101484.56;5019668;27;20101;-70
2022/01/16 10:21:00;;;;;;;97.07;45.03;;;;;;;-1.58;95.36;101468.03;5025868;28;20086;-70
2022/01/16 10:23:25;;;;;;;92.28;44.33;;;;;;;-1.44;94.78;101487.03;5023489;28;20042;-70
2022/01/16 10:29:52;;;;;;;127.55;54.75;;;;;;;-1.37;95.65;101470.22;5012370;28;20038;-70
2022/01/16 10:32:49;;;;;;;89.78;43.58;;;;;;;-1.20;96.02;101478.59;5043907;28;20118;-70
2022/01/16 10:35:22;;;;;;;91.13;46.42;;;;;;;-1.06;96.35;101481.81;5006460;28;20627;-68
2022/01/16 10:37:51;;;;;;;81.63;39.85;;;;;;;-1.02;96.57;101465.94;5015750;28;20125;-68
2022/01/16 10:40:23;;;;;;;81.47;40.42;;;;;;;-0.81;95.55;101481.22;5014941;28;20141;-68
2022/01/16 10:42:55;;;;;;;75.07;37.58;;;;;;;-0.72;94.33;101467.84;5025617;28;20136;-68
2022/01/16 10:45:29;;;;;;;79.18;39.78;;;;;;;-0.67;93.43;101451.94;5027694;28;20369;-68
2022/01/16 10:47:55;;;;;;;;;;;;;;;-0.59;92.63;101450.84;5029821;28;20036;-68
2022/01/16 10:50:22;;;;;;;71.85;35.53;;;;;;;-0.54;89.98;101450.72;5060076;28;20039;-69
2022/01/16 10:52:58;;;;;;;82.18;37.10;;;;;;;-0.53;89.76;101445.44;5026721;28;20038;-70
2022/01/16 10:55:33;;;;;;;77.35;36.25;;;;;;;-0.57;89.31;101432.38;5015572;28;20365;-69
2022/01/16 10:58:04;;;;;;;77.43;37.70;;;;;;;-0.52;89.67;101441.00;5013448;28;20063;-69
2022/01/16 11:00:30;;;;;;;79.70;39.30;;;;;;;-0.58;90.88;101435.91;5025090;28;20057;-67
2022/01/16 11:03:00;;;;;;;82.45;40.20;;;;;;;-0.60;91.55;101427.16;5028024;28;20271;-69
2022/01/16 11:05:28;;;;;;;90.30;42.00;;;;;;;-0.55;92.06;101417.41;5025351;28;20112;-68
2022/01/16 11:08:04;;;;;;;83.28;40.78;;;;;;;-0.50;92.31;101416.38;5026866;28;20422;-68
2022/01/16 11:10:31;;;;;;;83.60;40.40;;;;;;;-0.60;92.76;101401.72;5025990;28;20022;-68
2022/01/16 11:13:09;;;;;;;82.03;37.78;;;;;;;-0.51;92.80;101411.13;5007659;28;20041;-68
2022/01/16 11:15:36;;;;;;;77.82;38.08;;;;;;;-0.49;92.54;101415.47;5021806;28;20660;-68
2022/01/16 11:18:03;;;;;;;81.53;38.55;;;;;;;-0.48;92.48;101421.59;5009293;28;20029;-68
2022/01/16 11:20:33;;;;;;;69.38;37.13;;;;;;;-0.52;92.85;101405.00;5009146;28;20041;-68
2022/01/16 11:23:06;;;;;;;75.10;38.30;;;;;;;-0.47;92.92;101404.88;5016505;28;20025;-68
2022/01/16 11:25:36;;;;;;;83.60;40.13;;;;;;;-0.49;93.03;101396.13;5026367;28;20042;-68
2022/01/16 11:28:15;;;;;;;79.70;37.80;;;;;;;-0.41;93.00;101412.63;5026157;28;20081;-68
2022/01/16 11:30:47;;;;;;;114.50;54.25;;;;;;;-0.37;92.95;101401.97;5027327;28;20093;-68
2022/01/16 11:33:14;;;;;;;107.18;48.22;;;;;;;-0.34;92.55;101403.66;5024721;28;20416;-67
2022/01/16 11:35:43;;;;;;;119.13;60.83;;;;;;;-0.30;93.02;101405.31;5024496;28;20100;-68
2022/01/16 11:38:09;;;;;;;87.47;42.90;;;;;;;-0.25;93.02;101406.91;5024959;28;20033;-68
2022/01/16 11:40:45;;;;;;;81.57;41.17;;;;;;;-0.14;91.39;101406.63;5025670;28;20051;-68
2022/01/16 11:43:35;;;;;;;75.18;39.08;;;;;;;-0.21;91.25;101394.53;5017291;28;20466;-71
2022/01/16 11:46:11;;;;;;;84.65;41.17;;;;;;;-0.14;90.42;101404.00;5027892;28;20539;-70
2022/01/16 11:48:41;;;;;;;87.18;41.60;;;;;;;-0.12;89.76;101400.41;5018215;28;20026;-70
2022/01/16 11:51:36;;;;;;;83.47;40.90;;;;;;;-0.13;89.68;101395.16;5015507;28;20073;-70
2022/01/16 11:54:02;;;;;;;87.45;39.90;;;;;;;-0.12;90.17;101394.28;5025006;28;20049;-70
2022/01/16 11:56:42;;;;;;;83.50;40.17;;;;;;;-0.10;90.15;101390.69;5014964;28;20137;-70
2022/01/16 11:59:11;;;;;;;88.95;40.13;;;;;;;-0.09;90.59;101387.13;5022188;28;20030;-71